sensor_id;sensor_type;location;lat;lon;timestamp;P1;durP1;ratioP1;P2;durP2;ratioP2
19026;SDS011;9646;52.034;5.554;2022-08-19T00:00:46;7.05;;;5.70;;
19026;SDS011;9646;52.034;5.554;2022-08-19T00:03:15;5.47;;;4.97;;
19026;SDS011;9646;52.034;5.554;2022-08-19T00:05:42;5.68;;;5.18;;
19026;SDS011;9646;52.034;5.554;2022-08-19T00:08:09;6.90;;;5.35;;
19026;SDS011;9646;52.034;5.554;2022-08-19T00:10:37;6.28;;;5.68;;
19026;SDS011;9646;52.034;5.554;2022-08-19T00:13:04;6.57;;;5.95;;
19026;SDS011;9646;52.034;5.554;2022-08-19T00:15:32;6.13;;;5.63;;
19026;SDS011;9646;52.034;5.554;2022-08-19T00:17:59;6.15;;;5.65;;
19026;SDS011;9646;52.034;5.554;2022-08-19T00:20:26;6.47;;;5.78;;
19026;SDS011;9646;52.034;5.554;2022-08-19T00:22:53;7.05;;;5.97;;
19026;SDS011;9646;52.034;5.554;2022-08-19T00:25:20;5.88;;;5.35;;
19026;SDS011;9646;52.034;5.554;2022-08-19T00:27:49;5.90;;;5.30;;
19026;SDS011;9646;52.034;5.554;2022-08-19T00:30:16;5.75;;;5.22;;
19026;SDS011;9646;52.034;5.554;2022-08-19T00:32:43;5.97;;;5.47;;
19026;SDS011;9646;52.034;5.554;2022-08-19T00:35:10;5.05;;;4.55;;
19026;SDS011;9646;52.034;5.554;2022-08-19T00:37:38;4.57;;;4.18;;
19026;SDS011;9646;52.034;5.554;2022-08-19T00:40:08;6.50;;;4.68;;
19026;SDS011;9646;52.034;5.554;2022-08-19T00:42:35;4.85;;;4.35;;
19026;SDS011;9646;52.034;5.554;2022-08-19T00:45:04;4.93;;;4.53;;
19026;SDS011;9646;52.034;5.554;2022-08-19T00:47:35;5.13;;;4.25;;
19026;SDS011;9646;52.034;5.554;2022-08-19T00:50:02;5.55;;;4.40;;
19026;SDS011;9646;52.034;5.554;2022-08-19T00:52:32;5.70;;;4.35;;
19026;SDS011;9646;52.034;5.554;2022-08-19T00:55:00;5.18;;;4.68;;
19026;SDS011;9646;52.034;5.554;2022-08-19T00:57:29;6.65;;;5.25;;
19026;SDS011;9646;52.034;5.554;2022-08-19T00:59:57;5.05;;;4.50;;
19026;SDS011;9646;52.034;5.554;2022-08-19T01:02:27;5.43;;;4.88;;
19026;SDS011;9646;52.034;5.554;2022-08-19T01:04:54;5.15;;;4.60;;
19026;SDS011;9646;52.034;5.554;2022-08-19T01:07:21;5.25;;;4.05;;
19026;SDS011;9646;52.034;5.554;2022-08-19T01:09:49;4.78;;;4.07;;
19026;SDS011;9646;52.034;5.554;2022-08-19T01:12:16;4.35;;;3.90;;
19026;SDS011;9646;52.034;5.554;2022-08-19T01:14:43;4.90;;;4.30;;
19026;SDS011;9646;52.034;5.554;2022-08-19T01:17:12;4.32;;;3.90;;
19026;SDS011;9646;52.034;5.554;2022-08-19T01:19:41;5.25;;;3.60;;
19026;SDS011;9646;52.034;5.554;2022-08-19T01:22:10;3.83;;;3.53;;
19026;SDS011;9646;52.034;5.554;2022-08-19T01:24:40;4.80;;;3.90;;
19026;SDS011;9646;52.034;5.554;2022-08-19T01:27:07;4.13;;;3.72;;
19026;SDS011;9646;52.034;5.554;2022-08-19T01:29:36;4.93;;;4.10;;
19026;SDS011;9646;52.034;5.554;2022-08-19T01:32:03;4.68;;;3.80;;
19026;SDS011;9646;52.034;5.554;2022-08-19T01:34:30;4.80;;;3.92;;
19026;SDS011;9646;52.034;5.554;2022-08-19T01:36:59;4.20;;;3.80;;
19026;SDS011;9646;52.034;5.554;2022-08-19T01:39:26;4.43;;;3.63;;
19026;SDS011;9646;52.034;5.554;2022-08-19T01:41:55;5.15;;;3.92;;
19026;SDS011;9646;52.034;5.554;2022-08-19T01:44:22;4.55;;;4.10;;
19026;SDS011;9646;52.034;5.554;2022-08-19T01:46:50;5.68;;;3.08;;
19026;SDS011;9646;52.034;5.554;2022-08-19T01:49:18;4.00;;;3.70;;
19026;SDS011;9646;52.034;5.554;2022-08-19T01:51:45;4.35;;;3.60;;
19026;SDS011;9646;52.034;5.554;2022-08-19T01:54:13;5.22;;;3.92;;
19026;SDS011;9646;52.034;5.554;2022-08-19T01:56:41;3.92;;;3.63;;
19026;SDS011;9646;52.034;5.554;2022-08-19T01:59:10;5.22;;;3.78;;
19026;SDS011;9646;52.034;5.554;2022-08-19T02:01:37;3.95;;;3.60;;
19026;SDS011;9646;52.034;5.554;2022-08-19T02:04:04;4.95;;;3.90;;
19026;SDS011;9646;52.034;5.554;2022-08-19T02:06:32;3.58;;;3.28;;
19026;SDS011;9646;52.034;5.554;2022-08-19T02:08:59;4.78;;;3.92;;
19026;SDS011;9646;52.034;5.554;2022-08-19T02:11:27;3.92;;;3.15;;
19026;SDS011;9646;52.034;5.554;2022-08-19T02:13:56;4.55;;;4.13;;
19026;SDS011;9646;52.034;5.554;2022-08-19T02:16:24;3.97;;;3.63;;
19026;SDS011;9646;52.034;5.554;2022-08-19T02:18:51;7.30;;;4.28;;
19026;SDS011;9646;52.034;5.554;2022-08-19T02:21:20;4.40;;;4.00;;
19026;SDS011;9646;52.034;5.554;2022-08-19T02:23:48;4.00;;;3.70;;
19026;SDS011;9646;52.034;5.554;2022-08-19T02:26:15;4.85;;;3.95;;
19026;SDS011;9646;52.034;5.554;2022-08-19T02:28:42;4.82;;;4.28;;
19026;SDS011;9646;52.034;5.554;2022-08-19T02:31:10;4.78;;;4.38;;
19026;SDS011;9646;52.034;5.554;2022-08-19T02:33:39;4.72;;;4.25;;
19026;SDS011;9646;52.034;5.554;2022-08-19T02:36:07;5.22;;;4.72;;
19026;SDS011;9646;52.034;5.554;2022-08-19T02:38:35;5.10;;;4.63;;
19026;SDS011;9646;52.034;5.554;2022-08-19T02:41:03;5.85;;;4.57;;
19026;SDS011;9646;52.034;5.554;2022-08-19T02:43:31;4.93;;;4.43;;
19026;SDS011;9646;52.034;5.554;2022-08-19T02:45:59;5.45;;;4.97;;
19026;SDS011;9646;52.034;5.554;2022-08-19T02:48:26;5.05;;;4.57;;
19026;SDS011;9646;52.034;5.554;2022-08-19T02:50:55;4.65;;;4.25;;
19026;SDS011;9646;52.034;5.554;2022-08-19T02:53:23;5.85;;;4.72;;
19026;SDS011;9646;52.034;5.554;2022-08-19T02:55:50;7.65;;;5.05;;
19026;SDS011;9646;52.034;5.554;2022-08-19T02:58:18;5.35;;;4.95;;
19026;SDS011;9646;52.034;5.554;2022-08-19T03:00:46;5.15;;;4.75;;
19026;SDS011;9646;52.034;5.554;2022-08-19T03:03:14;5.95;;;5.15;;
19026;SDS011;9646;52.034;5.554;2022-08-19T03:05:41;4.90;;;4.40;;
19026;SDS011;9646;52.034;5.554;2022-08-19T03:08:11;4.40;;;4.00;;
19026;SDS011;9646;52.034;5.554;2022-08-19T03:10:41;4.30;;;3.90;;
19026;SDS011;9646;52.034;5.554;2022-08-19T03:13:10;5.13;;;4.63;;
19026;SDS011;9646;52.034;5.554;2022-08-19T03:15:39;5.30;;;4.40;;
19026;SDS011;9646;52.034;5.554;2022-08-19T03:18:06;5.25;;;4.30;;
19026;SDS011;9646;52.034;5.554;2022-08-19T03:20:33;7.15;;;4.50;;
19026;SDS011;9646;52.034;5.554;2022-08-19T03:23:00;4.95;;;4.53;;
19026;SDS011;9646;52.034;5.554;2022-08-19T03:25:28;4.85;;;4.45;;
19026;SDS011;9646;52.034;5.554;2022-08-19T03:27:55;6.10;;;4.57;;
19026;SDS011;9646;52.034;5.554;2022-08-19T03:30:22;4.57;;;4.18;;
19026;SDS011;9646;52.034;5.554;2022-08-19T03:32:49;4.82;;;4.40;;
19026;SDS011;9646;52.034;5.554;2022-08-19T03:35:17;4.57;;;4.18;;
19026;SDS011;9646;52.034;5.554;2022-08-19T03:37:45;4.68;;;4.07;;
19026;SDS011;9646;52.034;5.554;2022-08-19T03:40:12;5.40;;;3.85;;
19026;SDS011;9646;52.034;5.554;2022-08-19T03:42:40;5.05;;;4.65;;
19026;SDS011;9646;52.034;5.554;2022-08-19T03:45:08;3.60;;;3.30;;
19026;SDS011;9646;52.034;5.554;2022-08-19T03:47:35;2.53;;;2.33;;
19026;SDS011;9646;52.034;5.554;2022-08-19T03:50:03;2.97;;;2.67;;
19026;SDS011;9646;52.034;5.554;2022-08-19T03:52:30;2.45;;;2.25;;
19026;SDS011;9646;52.034;5.554;2022-08-19T03:54:57;2.90;;;2.60;;
19026;SDS011;9646;52.034;5.554;2022-08-19T03:57:24;2.40;;;2.20;;
19026;SDS011;9646;52.034;5.554;2022-08-19T03:59:52;2.92;;;2.40;;
19026;SDS011;9646;52.034;5.554;2022-08-19T04:02:19;2.53;;;2.30;;
19026;SDS011;9646;52.034;5.554;2022-08-19T04:04:47;2.58;;;2.38;;
19026;SDS011;9646;52.034;5.554;2022-08-19T04:07:14;3.13;;;2.30;;
19026;SDS011;9646;52.034;5.554;2022-08-19T04:09:43;2.70;;;2.50;;
19026;SDS011;9646;52.034;5.554;2022-08-19T04:12:10;3.47;;;2.17;;
19026;SDS011;9646;52.034;5.554;2022-08-19T04:14:37;2.20;;;2.10;;
19026;SDS011;9646;52.034;5.554;2022-08-19T04:17:06;3.45;;;2.10;;
19026;SDS011;9646;52.034;5.554;2022-08-19T04:19:34;3.15;;;2.30;;
19026;SDS011;9646;52.034;5.554;2022-08-19T04:22:01;3.83;;;2.50;;
19026;SDS011;9646;52.034;5.554;2022-08-19T04:24:28;3.28;;;2.65;;
19026;SDS011;9646;52.034;5.554;2022-08-19T04:26:55;2.97;;;2.78;;
19026;SDS011;9646;52.034;5.554;2022-08-19T04:29:23;3.03;;;2.58;;
19026;SDS011;9646;52.034;5.554;2022-08-19T04:31:52;3.15;;;2.85;;
19026;SDS011;9646;52.034;5.554;2022-08-19T04:34:21;4.65;;;3.45;;
19026;SDS011;9646;52.034;5.554;2022-08-19T04:36:49;4.32;;;3.83;;
19026;SDS011;9646;52.034;5.554;2022-08-19T04:39:18;7.43;;;6.07;;
19026;SDS011;9646;52.034;5.554;2022-08-19T04:41:45;7.47;;;5.90;;
19026;SDS011;9646;52.034;5.554;2022-08-19T04:44:30;6.35;;;5.47;;
19026;SDS011;9646;52.034;5.554;2022-08-19T04:46:57;7.25;;;5.60;;
19026;SDS011;9646;52.034;5.554;2022-08-19T04:49:26;5.97;;;5.38;;
19026;SDS011;9646;52.034;5.554;2022-08-19T04:51:53;7.03;;;6.20;;
19026;SDS011;9646;52.034;5.554;2022-08-19T04:54:21;9.98;;;7.70;;
19026;SDS011;9646;52.034;5.554;2022-08-19T04:56:50;10.55;;;7.25;;
19026;SDS011;9646;52.034;5.554;2022-08-19T04:59:17;9.20;;;7.75;;
19026;SDS011;9646;52.034;5.554;2022-08-19T05:01:45;7.97;;;6.97;;
19026;SDS011;9646;52.034;5.554;2022-08-19T05:04:15;8.60;;;6.25;;
19026;SDS011;9646;52.034;5.554;2022-08-19T05:06:43;7.97;;;6.38;;
19026;SDS011;9646;52.034;5.554;2022-08-19T05:09:10;6.85;;;5.85;;
19026;SDS011;9646;52.034;5.554;2022-08-19T05:11:37;8.20;;;6.55;;
19026;SDS011;9646;52.034;5.554;2022-08-19T05:14:05;8.52;;;7.30;;
19026;SDS011;9646;52.034;5.554;2022-08-19T05:16:32;11.02;;;8.43;;
19026;SDS011;9646;52.034;5.554;2022-08-19T05:18:59;9.27;;;7.40;;
19026;SDS011;9646;52.034;5.554;2022-08-19T05:21:45;13.90;;;8.80;;
19026;SDS011;9646;52.034;5.554;2022-08-19T05:24:30;11.63;;;8.43;;
19026;SDS011;9646;52.034;5.554;2022-08-19T05:26:59;11.60;;;9.00;;
19026;SDS011;9646;52.034;5.554;2022-08-19T05:29:28;10.65;;;9.50;;
19026;SDS011;9646;52.034;5.554;2022-08-19T05:31:56;17.88;;;12.13;;
19026;SDS011;9646;52.034;5.554;2022-08-19T05:34:23;21.33;;;15.50;;
19026;SDS011;9646;52.034;5.554;2022-08-19T05:36:54;14.85;;;12.43;;
19026;SDS011;9646;52.034;5.554;2022-08-19T05:39:23;17.77;;;12.02;;
19026;SDS011;9646;52.034;5.554;2022-08-19T05:41:51;12.02;;;10.60;;
19026;SDS011;9646;52.034;5.554;2022-08-19T05:44:19;11.05;;;9.88;;
19026;SDS011;9646;52.034;5.554;2022-08-19T05:46:46;12.85;;;10.68;;
19026;SDS011;9646;52.034;5.554;2022-08-19T05:49:14;12.45;;;10.38;;
19026;SDS011;9646;52.034;5.554;2022-08-19T05:51:42;11.35;;;9.80;;
19026;SDS011;9646;52.034;5.554;2022-08-19T05:54:11;12.98;;;10.80;;
19026;SDS011;9646;52.034;5.554;2022-08-19T05:56:39;11.65;;;8.90;;
19026;SDS011;9646;52.034;5.554;2022-08-19T05:59:07;14.38;;;11.00;;
19026;SDS011;9646;52.034;5.554;2022-08-19T06:01:34;19.00;;;16.98;;
19026;SDS011;9646;52.034;5.554;2022-08-19T06:04:02;17.30;;;14.57;;
19026;SDS011;9646;52.034;5.554;2022-08-19T06:06:30;18.02;;;15.57;;
19026;SDS011;9646;52.034;5.554;2022-08-19T06:08:59;18.17;;;15.52;;
19026;SDS011;9646;52.034;5.554;2022-08-19T06:11:34;26.17;;;19.52;;
19026;SDS011;9646;52.034;5.554;2022-08-19T06:14:02;18.55;;;16.08;;
19026;SDS011;9646;52.034;5.554;2022-08-19T06:16:29;24.15;;;19.55;;
19026;SDS011;9646;52.034;5.554;2022-08-19T06:19:00;31.20;;;23.73;;
19026;SDS011;9646;52.034;5.554;2022-08-19T06:21:28;29.02;;;22.88;;
19026;SDS011;9646;52.034;5.554;2022-08-19T06:23:56;36.25;;;28.27;;
19026;SDS011;9646;52.034;5.554;2022-08-19T06:26:23;32.97;;;23.35;;
19026;SDS011;9646;52.034;5.554;2022-08-19T06:28:52;25.85;;;21.05;;
19026;SDS011;9646;52.034;5.554;2022-08-19T06:31:23;34.85;;;27.65;;
19026;SDS011;9646;52.034;5.554;2022-08-19T06:33:50;29.98;;;23.40;;
19026;SDS011;9646;52.034;5.554;2022-08-19T06:36:18;27.13;;;21.83;;
19026;SDS011;9646;52.034;5.554;2022-08-19T06:38:45;30.83;;;23.70;;
19026;SDS011;9646;52.034;5.554;2022-08-19T06:41:13;40.85;;;29.58;;
19026;SDS011;9646;52.034;5.554;2022-08-19T06:43:40;39.67;;;28.92;;
19026;SDS011;9646;52.034;5.554;2022-08-19T06:46:13;35.55;;;25.27;;
19026;SDS011;9646;52.034;5.554;2022-08-19T06:48:41;43.45;;;32.42;;
19026;SDS011;9646;52.034;5.554;2022-08-19T06:51:08;42.78;;;31.05;;
19026;SDS011;9646;52.034;5.554;2022-08-19T06:53:35;34.20;;;26.15;;
19026;SDS011;9646;52.034;5.554;2022-08-19T06:56:04;41.35;;;32.55;;
19026;SDS011;9646;52.034;5.554;2022-08-19T06:58:31;47.45;;;34.65;;
19026;SDS011;9646;52.034;5.554;2022-08-19T07:00:59;48.50;;;36.10;;
19026;SDS011;9646;52.034;5.554;2022-08-19T07:03:29;48.17;;;35.25;;
19026;SDS011;9646;52.034;5.554;2022-08-19T07:05:57;41.15;;;28.52;;
19026;SDS011;9646;52.034;5.554;2022-08-19T07:08:24;52.88;;;38.40;;
19026;SDS011;9646;52.034;5.554;2022-08-19T07:10:52;55.03;;;38.67;;
19026;SDS011;9646;52.034;5.554;2022-08-19T07:13:19;42.60;;;31.88;;
19026;SDS011;9646;52.034;5.554;2022-08-19T07:15:47;49.83;;;36.65;;
19026;SDS011;9646;52.034;5.554;2022-08-19T07:18:15;53.42;;;38.85;;
19026;SDS011;9646;52.034;5.554;2022-08-19T07:20:43;50.30;;;36.08;;
19026;SDS011;9646;52.034;5.554;2022-08-19T07:23:10;40.90;;;31.60;;
19026;SDS011;9646;52.034;5.554;2022-08-19T07:25:38;50.80;;;35.67;;
19026;SDS011;9646;52.034;5.554;2022-08-19T07:28:05;49.35;;;35.83;;
19026;SDS011;9646;52.034;5.554;2022-08-19T07:30:35;48.83;;;36.35;;
19026;SDS011;9646;52.034;5.554;2022-08-19T07:33:02;51.92;;;37.13;;
19026;SDS011;9646;52.034;5.554;2022-08-19T07:35:29;47.70;;;34.00;;
19026;SDS011;9646;52.034;5.554;2022-08-19T07:38:00;47.53;;;33.63;;
19026;SDS011;9646;52.034;5.554;2022-08-19T07:40:28;48.72;;;35.10;;
19026;SDS011;9646;52.034;5.554;2022-08-19T07:42:55;47.45;;;33.25;;
19026;SDS011;9646;52.034;5.554;2022-08-19T07:45:22;50.67;;;35.92;;
19026;SDS011;9646;52.034;5.554;2022-08-19T07:47:50;42.47;;;30.98;;
19026;SDS011;9646;52.034;5.554;2022-08-19T07:50:18;48.85;;;33.70;;
19026;SDS011;9646;52.034;5.554;2022-08-19T07:52:45;38.10;;;26.27;;
19026;SDS011;9646;52.034;5.554;2022-08-19T07:55:17;47.42;;;34.35;;
19026;SDS011;9646;52.034;5.554;2022-08-19T07:57:44;45.88;;;32.75;;
19026;SDS011;9646;52.034;5.554;2022-08-19T08:00:12;49.47;;;35.85;;
19026;SDS011;9646;52.034;5.554;2022-08-19T08:02:39;50.17;;;35.80;;
19026;SDS011;9646;52.034;5.554;2022-08-19T08:05:09;46.97;;;34.20;;
19026;SDS011;9646;52.034;5.554;2022-08-19T08:07:54;52.35;;;36.83;;
19026;SDS011;9646;52.034;5.554;2022-08-19T08:10:40;48.20;;;34.55;;
19026;SDS011;9646;52.034;5.554;2022-08-19T08:13:07;54.20;;;36.15;;
19026;SDS011;9646;52.034;5.554;2022-08-19T08:15:34;38.80;;;27.23;;
19026;SDS011;9646;52.034;5.554;2022-08-19T08:18:03;44.40;;;31.20;;
19026;SDS011;9646;52.034;5.554;2022-08-19T08:20:31;40.55;;;30.27;;
19026;SDS011;9646;52.034;5.554;2022-08-19T08:22:58;48.90;;;32.70;;
19026;SDS011;9646;52.034;5.554;2022-08-19T08:25:44;44.63;;;31.90;;
19026;SDS011;9646;52.034;5.554;2022-08-19T08:28:11;41.10;;;28.48;;
19026;SDS011;9646;52.034;5.554;2022-08-19T08:30:38;38.40;;;28.55;;
19026;SDS011;9646;52.034;5.554;2022-08-19T08:33:07;40.80;;;30.10;;
19026;SDS011;9646;52.034;5.554;2022-08-19T08:35:34;40.15;;;29.77;;
19026;SDS011;9646;52.034;5.554;2022-08-19T08:38:02;33.10;;;24.38;;
19026;SDS011;9646;52.034;5.554;2022-08-19T08:40:31;37.78;;;26.98;;
19026;SDS011;9646;52.034;5.554;2022-08-19T08:43:03;26.08;;;20.27;;
19026;SDS011;9646;52.034;5.554;2022-08-19T08:45:33;39.25;;;25.67;;
19026;SDS011;9646;52.034;5.554;2022-08-19T08:48:02;37.53;;;26.35;;
19026;SDS011;9646;52.034;5.554;2022-08-19T08:50:30;36.42;;;27.50;;
19026;SDS011;9646;52.034;5.554;2022-08-19T08:53:00;35.17;;;25.08;;
19026;SDS011;9646;52.034;5.554;2022-08-19T08:55:28;36.10;;;25.73;;
19026;SDS011;9646;52.034;5.554;2022-08-19T08:57:58;32.67;;;23.77;;
19026;SDS011;9646;52.034;5.554;2022-08-19T09:00:28;34.78;;;27.48;;
19026;SDS011;9646;52.034;5.554;2022-08-19T09:02:57;34.92;;;26.08;;
19026;SDS011;9646;52.034;5.554;2022-08-19T09:05:25;35.75;;;25.88;;
19026;SDS011;9646;52.034;5.554;2022-08-19T09:07:54;36.83;;;28.20;;
19026;SDS011;9646;52.034;5.554;2022-08-19T09:10:27;32.75;;;23.75;;
19026;SDS011;9646;52.034;5.554;2022-08-19T09:12:57;24.85;;;19.80;;
19026;SDS011;9646;52.034;5.554;2022-08-19T09:15:29;31.67;;;24.83;;
19026;SDS011;9646;52.034;5.554;2022-08-19T09:18:00;26.90;;;21.15;;
19026;SDS011;9646;52.034;5.554;2022-08-19T09:20:28;34.20;;;25.33;;
19026;SDS011;9646;52.034;5.554;2022-08-19T09:22:56;31.35;;;22.83;;
19026;SDS011;9646;52.034;5.554;2022-08-19T09:25:24;30.13;;;21.92;;
19026;SDS011;9646;52.034;5.554;2022-08-19T09:27:51;30.83;;;23.63;;
19026;SDS011;9646;52.034;5.554;2022-08-19T09:30:22;29.67;;;22.63;;
19026;SDS011;9646;52.034;5.554;2022-08-19T09:32:51;31.15;;;23.52;;
19026;SDS011;9646;52.034;5.554;2022-08-19T09:35:19;30.48;;;22.73;;
19026;SDS011;9646;52.034;5.554;2022-08-19T09:37:47;30.67;;;23.90;;
19026;SDS011;9646;52.034;5.554;2022-08-19T09:40:15;32.33;;;22.85;;
19026;SDS011;9646;52.034;5.554;2022-08-19T09:42:42;30.13;;;23.10;;
19026;SDS011;9646;52.034;5.554;2022-08-19T09:45:11;28.50;;;21.30;;
19026;SDS011;9646;52.034;5.554;2022-08-19T09:47:38;28.70;;;20.83;;
19026;SDS011;9646;52.034;5.554;2022-08-19T09:50:08;32.80;;;22.10;;
19026;SDS011;9646;52.034;5.554;2022-08-19T09:52:36;29.42;;;22.42;;
19026;SDS011;9646;52.034;5.554;2022-08-19T09:55:03;29.50;;;21.00;;
19026;SDS011;9646;52.034;5.554;2022-08-19T09:57:30;27.20;;;22.58;;
19026;SDS011;9646;52.034;5.554;2022-08-19T09:59:57;28.30;;;21.45;;
19026;SDS011;9646;52.034;5.554;2022-08-19T10:02:24;24.23;;;19.98;;
19026;SDS011;9646;52.034;5.554;2022-08-19T10:04:51;26.85;;;20.20;;
19026;SDS011;9646;52.034;5.554;2022-08-19T10:07:38;29.75;;;21.02;;
19026;SDS011;9646;52.034;5.554;2022-08-19T10:10:05;23.65;;;18.40;;
19026;SDS011;9646;52.034;5.554;2022-08-19T10:12:34;24.90;;;18.92;;
19026;SDS011;9646;52.034;5.554;2022-08-19T10:15:02;22.42;;;16.58;;
19026;SDS011;9646;52.034;5.554;2022-08-19T10:17:29;24.67;;;17.77;;
19026;SDS011;9646;52.034;5.554;2022-08-19T10:19:58;23.52;;;15.30;;
19026;SDS011;9646;52.034;5.554;2022-08-19T10:22:25;26.95;;;17.63;;
19026;SDS011;9646;52.034;5.554;2022-08-19T10:24:53;24.20;;;18.45;;
19026;SDS011;9646;52.034;5.554;2022-08-19T10:27:21;24.08;;;18.40;;
19026;SDS011;9646;52.034;5.554;2022-08-19T10:29:49;27.75;;;19.63;;
19026;SDS011;9646;52.034;5.554;2022-08-19T10:32:16;28.58;;;18.58;;
19026;SDS011;9646;52.034;5.554;2022-08-19T10:34:43;24.75;;;18.35;;
19026;SDS011;9646;52.034;5.554;2022-08-19T10:37:11;23.30;;;18.73;;
19026;SDS011;9646;52.034;5.554;2022-08-19T10:39:38;22.45;;;18.25;;
19026;SDS011;9646;52.034;5.554;2022-08-19T10:42:07;24.60;;;17.85;;
19026;SDS011;9646;52.034;5.554;2022-08-19T10:44:35;25.70;;;18.42;;
19026;SDS011;9646;52.034;5.554;2022-08-19T10:47:03;26.70;;;17.15;;
19026;SDS011;9646;52.034;5.554;2022-08-19T10:49:30;26.58;;;20.42;;
19026;SDS011;9646;52.034;5.554;2022-08-19T10:52:18;21.63;;;15.55;;
19026;SDS011;9646;52.034;5.554;2022-08-19T10:54:59;22.42;;;16.90;;
19026;SDS011;9646;52.034;5.554;2022-08-19T10:57:45;27.00;;;19.88;;
19026;SDS011;9646;52.034;5.554;2022-08-19T11:00:13;21.50;;;16.70;;
19026;SDS011;9646;52.034;5.554;2022-08-19T11:02:40;22.58;;;17.60;;
19026;SDS011;9646;52.034;5.554;2022-08-19T11:05:07;12.75;;;9.68;;
19026;SDS011;9646;52.034;5.554;2022-08-19T11:07:36;27.42;;;18.50;;
19026;SDS011;9646;52.034;5.554;2022-08-19T11:10:03;27.95;;;20.20;;
19026;SDS011;9646;52.034;5.554;2022-08-19T11:12:31;30.48;;;21.77;;
19026;SDS011;9646;52.034;5.554;2022-08-19T11:14:59;28.38;;;22.58;;
19026;SDS011;9646;52.034;5.554;2022-08-19T11:17:27;29.88;;;21.02;;
19026;SDS011;9646;52.034;5.554;2022-08-19T11:19:55;28.50;;;20.80;;
19026;SDS011;9646;52.034;5.554;2022-08-19T11:22:22;28.02;;;21.67;;
19026;SDS011;9646;52.034;5.554;2022-08-19T11:24:49;27.95;;;20.52;;
19026;SDS011;9646;52.034;5.554;2022-08-19T11:27:17;27.20;;;20.80;;
19026;SDS011;9646;52.034;5.554;2022-08-19T11:29:44;26.58;;;22.63;;
19026;SDS011;9646;52.034;5.554;2022-08-19T11:32:12;25.67;;;22.60;;
19026;SDS011;9646;52.034;5.554;2022-08-19T11:34:40;30.00;;;21.98;;
19026;SDS011;9646;52.034;5.554;2022-08-19T11:37:07;28.27;;;20.92;;
19026;SDS011;9646;52.034;5.554;2022-08-19T11:39:34;31.83;;;25.02;;
19026;SDS011;9646;52.034;5.554;2022-08-19T11:42:02;34.92;;;24.58;;
19026;SDS011;9646;52.034;5.554;2022-08-19T11:44:49;27.45;;;22.65;;
19026;SDS011;9646;52.034;5.554;2022-08-19T11:47:18;29.95;;;23.42;;
19026;SDS011;9646;52.034;5.554;2022-08-19T11:49:45;32.65;;;25.80;;
19026;SDS011;9646;52.034;5.554;2022-08-19T11:52:12;27.58;;;21.15;;
19026;SDS011;9646;52.034;5.554;2022-08-19T11:54:40;33.05;;;25.20;;
19026;SDS011;9646;52.034;5.554;2022-08-19T11:57:07;31.15;;;25.30;;
19026;SDS011;9646;52.034;5.554;2022-08-19T11:59:34;34.28;;;24.08;;
19026;SDS011;9646;52.034;5.554;2022-08-19T12:02:01;24.25;;;19.73;;
19026;SDS011;9646;52.034;5.554;2022-08-19T12:04:29;30.20;;;24.27;;
19026;SDS011;9646;52.034;5.554;2022-08-19T12:06:56;32.42;;;24.98;;
19026;SDS011;9646;52.034;5.554;2022-08-19T12:09:23;33.13;;;22.98;;
19026;SDS011;9646;52.034;5.554;2022-08-19T12:11:50;29.58;;;23.83;;
19026;SDS011;9646;52.034;5.554;2022-08-19T12:14:17;30.15;;;23.88;;
19026;SDS011;9646;52.034;5.554;2022-08-19T12:16:45;31.38;;;22.67;;
19026;SDS011;9646;52.034;5.554;2022-08-19T12:19:12;27.92;;;20.08;;
19026;SDS011;9646;52.034;5.554;2022-08-19T12:21:41;27.08;;;20.23;;
19026;SDS011;9646;52.034;5.554;2022-08-19T12:24:08;34.20;;;24.80;;
19026;SDS011;9646;52.034;5.554;2022-08-19T12:26:36;31.23;;;23.90;;
19026;SDS011;9646;52.034;5.554;2022-08-19T12:29:03;33.00;;;24.75;;
19026;SDS011;9646;52.034;5.554;2022-08-19T12:31:30;18.40;;;16.45;;
19026;SDS011;9646;52.034;5.554;2022-08-19T12:33:58;35.08;;;24.35;;
19026;SDS011;9646;52.034;5.554;2022-08-19T12:36:27;28.67;;;21.25;;
19026;SDS011;9646;52.034;5.554;2022-08-19T12:38:57;29.88;;;23.73;;
19026;SDS011;9646;52.034;5.554;2022-08-19T12:41:24;31.77;;;24.58;;
19026;SDS011;9646;52.034;5.554;2022-08-19T12:43:51;31.05;;;24.70;;
19026;SDS011;9646;52.034;5.554;2022-08-19T12:46:19;19.55;;;14.80;;
19026;SDS011;9646;52.034;5.554;2022-08-19T12:48:46;21.92;;;15.68;;
19026;SDS011;9646;52.034;5.554;2022-08-19T12:51:14;24.65;;;21.13;;
19026;SDS011;9646;52.034;5.554;2022-08-19T12:53:43;25.50;;;22.75;;
19026;SDS011;9646;52.034;5.554;2022-08-19T12:56:11;22.08;;;18.75;;
19026;SDS011;9646;52.034;5.554;2022-08-19T12:58:40;24.05;;;19.10;;
19026;SDS011;9646;52.034;5.554;2022-08-19T13:01:08;29.73;;;22.38;;
19026;SDS011;9646;52.034;5.554;2022-08-19T13:03:36;25.45;;;18.77;;
19026;SDS011;9646;52.034;5.554;2022-08-19T13:06:03;24.48;;;20.52;;
19026;SDS011;9646;52.034;5.554;2022-08-19T13:08:30;24.23;;;21.05;;
19026;SDS011;9646;52.034;5.554;2022-08-19T13:10:57;27.50;;;22.25;;
19026;SDS011;9646;52.034;5.554;2022-08-19T13:13:26;15.85;;;11.60;;
19026;SDS011;9646;52.034;5.554;2022-08-19T13:15:53;23.80;;;20.48;;
19026;SDS011;9646;52.034;5.554;2022-08-19T13:18:27;24.25;;;19.27;;
19026;SDS011;9646;52.034;5.554;2022-08-19T13:20:54;26.67;;;21.63;;
19026;SDS011;9646;52.034;5.554;2022-08-19T13:23:22;26.95;;;21.35;;
19026;SDS011;9646;52.034;5.554;2022-08-19T13:25:55;24.27;;;20.45;;
19026;SDS011;9646;52.034;5.554;2022-08-19T13:28:22;23.83;;;18.27;;
19026;SDS011;9646;52.034;5.554;2022-08-19T13:30:51;21.38;;;17.98;;
19026;SDS011;9646;52.034;5.554;2022-08-19T13:33:35;22.80;;;16.55;;
19026;SDS011;9646;52.034;5.554;2022-08-19T13:36:03;21.38;;;16.40;;
19026;SDS011;9646;52.034;5.554;2022-08-19T13:38:32;20.98;;;16.63;;
19026;SDS011;9646;52.034;5.554;2022-08-19T13:41:03;19.23;;;16.13;;
19026;SDS011;9646;52.034;5.554;2022-08-19T13:43:31;17.60;;;15.70;;
19026;SDS011;9646;52.034;5.554;2022-08-19T13:45:59;20.13;;;14.55;;
19026;SDS011;9646;52.034;5.554;2022-08-19T13:48:27;18.88;;;14.63;;
19026;SDS011;9646;52.034;5.554;2022-08-19T13:50:56;20.85;;;15.52;;
19026;SDS011;9646;52.034;5.554;2022-08-19T13:53:23;20.40;;;13.40;;
19026;SDS011;9646;52.034;5.554;2022-08-19T13:55:50;21.45;;;14.57;;
19026;SDS011;9646;52.034;5.554;2022-08-19T13:58:18;17.35;;;14.57;;
19026;SDS011;9646;52.034;5.554;2022-08-19T14:00:45;16.88;;;15.07;;
19026;SDS011;9646;52.034;5.554;2022-08-19T14:03:14;16.20;;;12.02;;
19026;SDS011;9646;52.034;5.554;2022-08-19T14:05:41;19.05;;;12.93;;
19026;SDS011;9646;52.034;5.554;2022-08-19T14:08:08;15.82;;;13.48;;
19026;SDS011;9646;52.034;5.554;2022-08-19T14:10:39;15.35;;;13.75;;
19026;SDS011;9646;52.034;5.554;2022-08-19T14:13:07;14.77;;;13.07;;
19026;SDS011;9646;52.034;5.554;2022-08-19T14:15:34;14.32;;;12.80;;
19026;SDS011;9646;52.034;5.554;2022-08-19T14:18:02;15.20;;;10.95;;
19026;SDS011;9646;52.034;5.554;2022-08-19T14:20:30;12.75;;;9.35;;
19026;SDS011;9646;52.034;5.554;2022-08-19T14:23:00;14.82;;;12.02;;
19026;SDS011;9646;52.034;5.554;2022-08-19T14:25:28;14.07;;;12.02;;
19026;SDS011;9646;52.034;5.554;2022-08-19T14:27:56;8.38;;;7.55;;
19026;SDS011;9646;52.034;5.554;2022-08-19T14:30:24;13.65;;;9.75;;
19026;SDS011;9646;52.034;5.554;2022-08-19T14:32:53;11.05;;;8.68;;
19026;SDS011;9646;52.034;5.554;2022-08-19T14:35:20;11.82;;;9.15;;
19026;SDS011;9646;52.034;5.554;2022-08-19T14:37:48;9.63;;;8.20;;
19026;SDS011;9646;52.034;5.554;2022-08-19T14:40:18;8.38;;;6.05;;
19026;SDS011;9646;52.034;5.554;2022-08-19T14:42:46;7.40;;;6.28;;
19026;SDS011;9646;52.034;5.554;2022-08-19T14:45:14;8.57;;;6.05;;
19026;SDS011;9646;52.034;5.554;2022-08-19T14:47:41;7.18;;;5.72;;
19026;SDS011;9646;52.034;5.554;2022-08-19T14:50:09;7.82;;;5.90;;
19026;SDS011;9646;52.034;5.554;2022-08-19T14:52:36;6.60;;;6.00;;